Time;durP1;ratioP1;P1;durP2;ratioP2;P2;SDS_P1;SDS_P2;PMS_P1;PMS_P2;Temp;Humidity;BMP_temperature;BMP_pressure;BME280_temperature;BME280_humidity;BME280_pressure;Samples;Min_cycle;Max_cycle;Signal;HPM_P1;HPM_P2
2023/08/15 00:01:10;;;;;;;;;;;17.40;99.90;;;;;;5037463;28;20020;-80
2023/08/15 00:03:35;;;;;;;;;;;17.40;99.90;;;;;;5035635;28;19925;-81
2023/08/15 00:06:01;;;;;;;;;;;17.40;99.90;;;;;;5033058;28;19925;-80
2023/08/15 00:08:26;;;;;;;;;;;17.40;99.90;;;;;;5039028;28;19944;-80
2023/08/15 00:10:52;;;;;;;;;;;17.30;99.90;;;;;;5037849;28;19929;-81
2023/08/15 00:13:18;;;;;;;;;;;17.40;99.90;;;;;;5016572;28;19972;-80
2023/08/15 00:15:43;;;;;;;;;;;17.30;99.90;;;;;;5037268;28;19929;-81
2023/08/15 00:18:09;;;;;;;;;;;17.30;99.90;;;;;;5037972;28;19929;-81
2023/08/15 00:20:34;;;;;;;;;;;17.40;99.90;;;;;;5053373;28;20350;-80
2023/08/15 00:23:00;;;;;;;;;;;17.30;99.90;;;;;;5029890;28;19952;-80
2023/08/15 00:25:26;;;;;;;;;;;17.30;99.90;;;;;;5037524;28;19925;-80
2023/08/15 00:27:51;;;;;;;;;;;17.30;99.90;;;;;;5034559;28;19979;-80
2023/08/15 00:30:17;;;;;;;;;;;17.30;99.90;;;;;;5036155;28;20543;-80
2023/08/15 00:32:42;;;;;;;;;;;17.40;99.90;;;;;;5033514;28;19947;-80
2023/08/15 00:35:09;;;;;;;;;;;17.40;99.90;;;;;;5067329;28;20067;-80
2023/08/15 00:37:34;;;;;;;;;;;17.30;99.90;;;;;;5046030;28;19929;-80
2023/08/15 00:40:00;;;;;;;;;;;17.30;99.90;;;;;;5037277;28;19979;-80
2023/08/15 00:42:26;;;;;;;;;;;17.30;99.90;;;;;;5034803;28;19926;-80
2023/08/15 00:44:52;;;;;;;;;;;17.30;99.90;;;;;;5043662;28;19945;-80
2023/08/15 00:47:18;;;;;;;;;;;17.30;99.90;;;;;;5060099;28;19929;-80
2023/08/15 00:49:44;;;;;;;;;;;17.30;99.90;;;;;;5036656;28;19925;-81
2023/08/15 00:52:11;;;;;;;;;;;17.30;99.90;;;;;;5021788;28;19929;-80
2023/08/15 00:54:37;;;;;;;;;;;17.30;99.90;;;;;;5065596;28;19929;-80
2023/08/15 00:57:03;;;;;;;;;;;17.40;99.90;;;;;;5069162;28;20011;-80
2023/08/15 00:59:29;;;;;;;;;;;17.30;99.90;;;;;;5033481;28;19925;-80
2023/08/15 01:01:55;;;;;;;;;;;17.30;99.90;;;;;;5034563;28;20329;-80
2023/08/15 01:04:21;;;;;;;;;;;17.40;99.90;;;;;;5018076;28;19961;-80
2023/08/15 01:06:46;;;;;;;;;;;17.40;99.90;;;;;;5022240;28;20060;-80
2023/08/15 01:09:12;;;;;;;;;;;17.40;99.90;;;;;;5033011;28;19929;-80
2023/08/15 01:11:53;;;;;;;;;;;17.40;99.90;;;;;;5035834;28;19925;-80
2023/08/15 01:14:19;;;;;;;;;;;17.40;99.90;;;;;;5035564;28;19925;-79
2023/08/15 01:16:45;;;;;;;;;;;17.50;99.90;;;;;;5065296;28;19929;-79
2023/08/15 01:19:33;;;;;;;;;;;17.50;99.90;;;;;;5065067;28;19929;-80
2023/08/15 01:22:00;;;;;;;;;;;17.40;99.90;;;;;;5037687;28;20059;-80
2023/08/15 01:24:26;;;;;;;;;;;17.40;99.90;;;;;;5019517;28;19936;-81
2023/08/15 01:26:51;;;;;;;;;;;17.40;99.90;;;;;;5070176;28;19925;-80
2023/08/15 01:29:17;;;;;;;;;;;17.50;99.90;;;;;;5047321;28;19964;-80
2023/08/15 01:31:45;;;;;;;;;;;17.50;99.90;;;;;;5038370;28;20447;-80
2023/08/15 01:34:11;;;;;;;;;;;17.60;99.90;;;;;;5047442;28;20025;-80
2023/08/15 01:36:39;;;;;;;;;;;17.60;99.90;;;;;;5067507;28;20439;-80
2023/08/15 01:39:06;;;;;;;;;;;17.60;99.90;;;;;;5032312;28;19936;-81
2023/08/15 01:41:33;;;;;;;;;;;17.70;99.90;;;;;;5035199;28;20187;-80
2023/08/15 01:44:00;;;;;;;;;;;17.70;99.90;;;;;;5033300;28;20671;-80
2023/08/15 01:46:25;;;;;;;;;;;17.70;99.90;;;;;;5037628;28;19935;-80
2023/08/15 01:48:51;;;;;;;;;;;17.70;99.90;;;;;;5034522;28;19964;-80
2023/08/15 01:51:17;;;;;;;;;;;17.70;99.90;;;;;;5036959;28;19940;-80
2023/08/15 01:53:42;;;;;;;;;;;17.80;99.90;;;;;;5033187;28;19925;-80
2023/08/15 01:56:08;;;;;;;;;;;17.80;99.90;;;;;;5014535;28;19937;-80
2023/08/15 01:58:34;;;;;;;;;;;17.80;99.90;;;;;;5031162;28;19951;-80
2023/08/15 02:01:01;;;;;;;;;;;17.80;99.90;;;;;;5035403;28;19925;-81
2023/08/15 02:03:26;;;;;;;;;;;17.80;99.90;;;;;;5051964;28;19925;-80
2023/08/15 02:05:52;;;;;;;;;;;17.80;99.90;;;;;;5016922;28;19931;-80
2023/08/15 02:08:18;;;;;;;;;;;17.90;99.90;;;;;;5034640;28;19929;-80
2023/08/15 02:10:43;;;;;;;;;;;17.90;99.90;;;;;;5030165;28;19988;-80
2023/08/15 02:13:09;;;;;;;;;;;17.80;99.90;;;;;;5050675;28;19951;-80
2023/08/15 02:15:34;;;;;;;;;;;17.80;99.90;;;;;;5033634;28;19987;-80
2023/08/15 02:18:00;;;;;;;;;;;17.80;99.90;;;;;;5034447;28;19925;-79
2023/08/15 02:20:25;;;;;;;;;;;17.80;99.90;;;;;;5035062;28;20051;-80
2023/08/15 02:22:52;;;;;;;;;;;17.80;99.90;;;;;;5069432;28;20372;-79
2023/08/15 02:25:17;;;;;;;;;;;17.70;99.90;;;;;;5018849;28;20000;-80
2023/08/15 02:27:43;;;;;;;;;;;17.80;99.90;;;;;;5051220;28;22745;-80
2023/08/15 02:30:09;;;;;;;;;;;17.80;99.90;;;;;;5032841;28;19957;-79
2023/08/15 02:32:35;;;;;;;;;;;17.70;99.90;;;;;;5039951;28;19929;-80
2023/08/15 02:35:00;;;;;;;;;;;17.80;99.90;;;;;;5071149;28;19956;-80
2023/08/15 02:37:26;;;;;;;;;;;17.70;99.90;;;;;;5065317;28;19970;-80
2023/08/15 02:39:51;;;;;;;;;;;17.70;99.90;;;;;;5050716;28;19925;-80
2023/08/15 02:42:17;;;;;;;;;;;17.70;99.90;;;;;;5015107;28;19954;-80
2023/08/15 02:44:43;;;;;;;;;;;17.70;99.90;;;;;;5017224;28;19934;-80
2023/08/15 02:47:08;;;;;;;;;;;17.70;99.90;;;;;;5066608;28;19925;-80
2023/08/15 02:49:34;;;;;;;;;;;17.70;99.90;;;;;;5017200;28;20343;-80
2023/08/15 02:51:59;;;;;;;;;;;17.70;99.90;;;;;;5034611;28;19964;-80
2023/08/15 02:54:25;;;;;;;;;;;17.70;99.90;;;;;;5031936;28;19979;-81
2023/08/15 02:56:50;;;;;;;;;;;17.80;99.90;;;;;;5047891;28;19932;-80
2023/08/15 02:59:16;;;;;;;;;;;17.80;99.90;;;;;;5009727;28;19925;-80
2023/08/15 03:01:41;;;;;;;;;;;17.90;99.90;;;;;;5034487;28;20020;-81
2023/08/15 03:04:09;;;;;;;;;;;17.90;99.90;;;;;;5035918;28;21059;-80
2023/08/15 03:06:34;;;;;;;;;;;18.00;99.90;;;;;;5049300;28;19932;-80
2023/08/15 03:09:00;;;;;;;;;;;18.00;99.90;;;;;;5034330;28;19925;-81
2023/08/15 03:11:26;;;;;;;;;;;18.10;99.90;;;;;;5032859;28;19932;-81
2023/08/15 03:13:52;;;;;;;;;;;18.10;99.90;;;;;;5033126;28;19975;-80
2023/08/15 03:16:18;;;;;;;;;;;18.10;99.90;;;;;;5033235;28;19977;-80
2023/08/15 03:18:44;;;;;;;;;;;18.20;99.90;;;;;;5047866;28;19929;-80
2023/08/15 03:21:09;;;;;;;;;;;18.30;99.90;;;;;;5032604;28;20019;-80
2023/08/15 03:23:37;;;;;;;;;;;18.30;99.90;;;;;;5032312;28;19933;-80
2023/08/15 03:26:04;;;;;;;;;;;18.30;99.90;;;;;;5066589;28;19936;-79
2023/08/15 03:28:29;;;;;;;;;;;18.30;99.90;;;;;;5068796;28;19925;-80
2023/08/15 03:30:56;;;;;;;;;;;18.30;99.90;;;;;;5038635;28;19963;-80
2023/08/15 03:33:22;;;;;;;;;;;18.30;99.90;;;;;;5034370;28;19989;-80
2023/08/15 03:35:50;;;;;;;;;;;18.40;99.90;;;;;;5034642;28;19929;-80
2023/08/15 03:38:17;;;;;;;;;;;18.30;99.90;;;;;;5032137;28;19925;-80
2023/08/15 03:40:43;;;;;;;;;;;18.40;99.90;;;;;;5034381;28;20535;-79
2023/08/15 03:43:08;;;;;;;;;;;18.40;99.90;;;;;;5033448;28;20045;-80
2023/08/15 03:45:34;;;;;;;;;;;18.30;99.90;;;;;;5036613;28;19948;-80
2023/08/15 03:48:00;;;;;;;;;;;18.30;99.90;;;;;;5016385;28;19976;-80
2023/08/15 03:50:25;;;;;;;;;;;18.30;99.90;;;;;;5035699;28;19933;-80
2023/08/15 03:52:51;;;;;;;;;;;18.40;99.90;;;;;;5035287;28;19956;-81
2023/08/15 03:55:16;;;;;;;;;;;18.40;99.90;;;;;;5015761;28;19926;-80
2023/08/15 03:57:42;;;;;;;;;;;18.40;99.90;;;;;;5017692;28;19929;-80
2023/08/15 04:00:09;;;;;;;;;;;18.40;99.90;;;;;;5030444;28;20471;-81
2023/08/15 04:02:34;;;;;;;;;;;18.40;99.90;;;;;;5016550;28;19926;-80
2023/08/15 04:05:00;;;;;;;;;;;18.40;99.90;;;;;;5034753;28;19933;-80
2023/08/15 04:07:26;;;;;;;;;;;18.40;99.90;;;;;;5023032;28;19925;-80
2023/08/15 04:09:51;;;;;;;;;;;18.40;99.90;;;;;;5035504;28;19947;-80
2023/08/15 04:12:17;;;;;;;;;;;18.40;99.90;;;;;;5052223;28;19929;-80
2023/08/15 04:14:42;;;;;;;;;;;18.40;99.90;;;;;;5036614;28;19995;-80
2023/08/15 04:17:08;;;;;;;;;;;18.40;99.90;;;;;;5036928;28;19936;-80
2023/08/15 04:19:33;;;;;;;;;;;18.40;99.90;;;;;;5036683;28;19929;-80
2023/08/15 04:21:59;;;;;;;;;;;18.40;99.90;;;;;;5023883;28;19930;-80
2023/08/15 04:24:25;;;;;;;;;;;18.50;99.90;;;;;;5025197;28;19952;-80
2023/08/15 04:26:50;;;;;;;;;;;18.50;99.90;;;;;;5039650;28;20449;-80
2023/08/15 04:29:16;;;;;;;;;;;18.50;99.90;;;;;;5033616;28;19947;-80
2023/08/15 04:31:41;;;;;;;;;;;18.50;99.90;;;;;;5009121;28;19925;-80
2023/08/15 04:34:07;;;;;;;;;;;18.50;99.90;;;;;;5020966;28;19925;-80
2023/08/15 04:36:33;;;;;;;;;;;18.50;99.90;;;;;;5023510;28;19929;-80
2023/08/15 04:38:58;;;;;;;;;;;18.40;99.90;;;;;;5039590;28;19987;-80
2023/08/15 04:41:24;;;;;;;;;;;18.40;99.90;;;;;;5040213;28;19929;-80
2023/08/15 04:43:49;;;;;;;;;;;18.40;99.90;;;;;;5036049;28;20157;-80
2023/08/15 04:46:15;;;;;;;;;;;18.40;99.90;;;;;;5019961;28;20030;-80
2023/08/15 04:48:40;;;;;;;;;;;18.40;99.90;;;;;;5009301;28;19926;-80
2023/08/15 04:51:06;;;;;;;;;;;18.40;99.90;;;;;;5036413;28;19984;-80
2023/08/15 04:53:32;;;;;;;;;;;18.30;99.90;;;;;;5036610;28;19929;-80
2023/08/15 04:55:57;;;;;;;;;;;18.30;99.90;;;;;;5051395;28;19928;-80
2023/08/15 04:58:23;;;;;;;;;;;18.30;99.90;;;;;;5013418;28;19944;-80
2023/08/15 05:00:48;;;;;;;;;;;18.30;99.90;;;;;;5013724;28;20304;-80
2023/08/15 05:03:14;;;;;;;;;;;18.30;99.90;;;;;;5037438;28;19933;-80
2023/08/15 05:05:39;;;;;;;;;;;18.30;99.90;;;;;;5068647;28;19939;-80
2023/08/15 05:08:06;;;;;;;;;;;18.30;99.90;;;;;;5037389;28;19929;-80
2023/08/15 05:10:32;;;;;;;;;;;18.30;99.90;;;;;;5037998;28;19954;-80
2023/08/15 05:12:59;;;;;;;;;;;18.30;99.90;;;;;;5033733;28;19932;-80
2023/08/15 05:15:25;;;;;;;;;;;18.30;99.90;;;;;;5034712;28;19936;-80
2023/08/15 05:17:51;;;;;;;;;;;18.30;99.90;;;;;;5068234;28;20031;-80
2023/08/15 05:20:17;;;;;;;;;;;18.30;99.90;;;;;;5020165;28;19925;-81
2023/08/15 05:22:42;;;;;;;;;;;18.30;99.90;;;;;;5037118;28;19933;-80
2023/08/15 05:25:08;;;;;;;;;;;18.30;99.90;;;;;;5035661;28;20015;-80
2023/08/15 05:27:33;;;;;;;;;;;18.40;99.90;;;;;;5016244;28;19933;-80
2023/08/15 05:29:59;;;;;;;;;;;18.40;99.90;;;;;;5017198;28;19933;-80
2023/08/15 05:32:24;;;;;;;;;;;18.40;99.90;;;;;;5008753;28;19933;-81
2023/08/15 05:34:50;;;;;;;;;;;18.40;99.90;;;;;;5054895;28;19944;-80
2023/08/15 05:37:16;;;;;;;;;;;18.40;99.90;;;;;;5041275;28;19929;-80
2023/08/15 05:39:41;;;;;;;;;;;18.40;99.90;;;;;;5032541;28;19960;-80
2023/08/15 05:42:07;;;;;;;;;;;18.40;99.90;;;;;;5035244;28;19933;-81
2023/08/15 05:44:32;;;;;;;;;;;18.40;99.90;;;;;;5035523;28;19939;-80
2023/08/15 05:46:58;;;;;;;;;;;18.40;99.90;;;;;;5039809;28;19929;-80
2023/08/15 05:49:23;;;;;;;;;;;18.40;99.90;;;;;;5035021;28;19952;-80
2023/08/15 05:51:49;;;;;;;;;;;18.30;99.90;;;;;;5035186;28;20467;-81
2023/08/15 05:54:15;;;;;;;;;;;18.30;99.90;;;;;;5037135;28;19964;-80
2023/08/15 05:56:40;;;;;;;;;;;18.30;99.90;;;;;;5067614;28;19951;-80
2023/08/15 05:59:06;;;;;;;;;;;18.20;99.90;;;;;;5020603;28;19925;-80
2023/08/15 06:01:32;;;;;;;;;;;18.20;99.90;;;;;;5068293;28;19990;-80
2023/08/15 06:03:57;;;;;;;;;;;18.20;99.90;;;;;;5033709;28;19940;-80
2023/08/15 06:06:23;;;;;;;;;;;18.20;99.90;;;;;;5065517;28;19925;-80
2023/08/15 06:08:48;;;;;;;;;;;18.20;99.90;;;;;;5033488;28;19926;-80
2023/08/15 06:11:15;;;;;;;;;;;18.20;99.90;;;;;;5033845;28;20390;-80
2023/08/15 06:13:40;;;;;;;;;;;18.20;99.90;;;;;;5018934;28;20024;-80
2023/08/15 06:16:06;;;;;;;;;;;18.30;99.90;;;;;;5033087;28;20007;-80
2023/08/15 06:18:32;;;;;;;;;;;18.40;99.90;;;;;;5032942;28;19925;-80
2023/08/15 06:20:58;;;;;;;;;;;18.50;99.90;;;;;;5019329;28;19936;-81
2023/08/15 06:23:24;;;;;;;;;;;18.60;99.90;;;;;;5039495;28;19956;-80
2023/08/15 06:25:49;;;;;;;;;;;18.60;99.90;;;;;;5024604;28;19933;-80
2023/08/15 06:28:17;;;;;;;;;;;18.70;99.90;;;;;;5011402;28;20524;-80
2023/08/15 06:30:42;;;;;;;;;;;18.70;99.90;;;;;;5037706;28;20020;-80
2023/08/15 06:33:08;;;;;;;;;;;18.90;99.90;;;;;;5036528;28;20431;-79
2023/08/15 06:35:33;;;;;;;;;;;19.00;99.90;;;;;;5035950;28;20059;-80
2023/08/15 06:37:59;;;;;;;;;;;19.10;99.90;;;;;;5035890;28;19925;-80
2023/08/15 06:40:25;;;;;;;;;;;19.40;99.90;;;;;;5034950;28;20395;-81
2023/08/15 06:42:50;;;;;;;;;;;19.90;99.90;;;;;;5016179;28;19932;-80
2023/08/15 06:45:16;;;;;;;;;;;20.50;99.90;;;;;;5009545;28;19930;-81
2023/08/15 06:47:42;;;;;;;;;;;21.00;99.90;;;;;;5067449;28;19989;-81
2023/08/15 06:50:08;;;;;;;;;;;21.40;99.90;;;;;;5031240;28;19933;-80
2023/08/15 06:52:34;;;;;;;;;;;22.00;99.90;;;;;;5037480;28;19936;-80
2023/08/15 06:55:03;;;;;;;;;;;22.40;99.90;;;;;;5032512;28;20292;-80
2023/08/15 06:57:29;;;;;;;;;;;22.80;99.90;;;;;;5049372;28;20384;-80
2023/08/15 06:59:55;;;;;;;;;;;22.90;99.90;;;;;;5031485;28;19933;-80
2023/08/15 07:02:20;;;;;;;;;;;22.80;99.90;;;;;;5031723;28;20368;-80
2023/08/15 07:04:48;;;;;;;;;;;22.50;99.90;;;;;;5064009;28;19932;-79
2023/08/15 07:07:14;;;;;;;;;;;22.30;99.90;;;;;;5019551;28;19929;-80
2023/08/15 07:09:40;;;;;;;;;;;22.00;99.90;;;;;;5064206;28;19935;-81
2023/08/15 07:12:06;;;;;;;;;;;21.80;99.90;;;;;;5015258;28;19933;-80
2023/08/15 07:14:32;;;;;;;;;;;21.70;99.90;;;;;;5065362;28;19952;-81
2023/08/15 07:16:57;;;;;;;;;;;21.70;99.90;;;;;;5017283;28;19932;-81
2023/08/15 07:19:23;;;;;;;;;;;21.90;99.90;;;;;;5032157;28;19932;-79
2023/08/15 07:21:48;;;;;;;;;;;22.00;99.90;;;;;;5066318;28;19940;-80
2023/08/15 07:24:15;;;;;;;;;;;22.00;99.90;;;;;;5001929;28;19931;-81
2023/08/15 07:26:40;;;;;;;;;;;22.00;99.90;;;;;;5017242;28;19925;-80
2023/08/15 07:29:06;;;;;;;;;;;22.00;99.90;;;;;;5007941;28;20377;-80
2023/08/15 07:31:31;;;;;;;;;;;21.90;99.90;;;;;;5062068;28;19988;-82
2023/08/15 07:33:57;;;;;;;;;;;21.90;99.90;;;;;;5032983;28;20058;-82
2023/08/15 07:36:23;;;;;;;;;;;22.00;99.90;;;;;;5034073;28;20001;-81
2023/08/15 07:38:48;;;;;;;;;;;22.30;99.90;;;;;;5050304;28;19929;-82
2023/08/15 07:41:14;;;;;;;;;;;22.40;99.90;;;;;;5070734;28;19972;-81
2023/08/15 07:43:40;;;;;;;;;;;22.60;99.90;;;;;;5037380;28;20018;-81
2023/08/15 07:46:05;;;;;;;;;;;22.60;99.90;;;;;;5014921;28;20032;-82
2023/08/15 07:48:31;;;;;;;;;;;22.40;99.90;;;;;;5016827;28;19961;-82
2023/08/15 07:50:56;;;;;;;;;;;22.40;99.90;;;;;;5067545;28;19932;-81
2023/08/15 07:53:23;;;;;;;;;;;22.60;99.90;;;;;;5035414;28;19925;-85
2023/08/15 07:55:49;;;;;;;;;;;22.80;99.90;;;;;;5042613;28;19929;-83
2023/08/15 07:58:14;;;;;;;;;;;23.20;99.90;;;;;;5041601;28;19987;-83
2023/08/15 08:00:42;;;;;;;;;;;23.50;99.90;;;;;;5042048;28;19971;-83
2023/08/15 08:03:08;;;;;;;;;;;23.50;99.90;;;;;;5048935;28;19925;-83
2023/08/15 08:05:34;;;;;;;;;;;23.30;99.90;;;;;;5036669;28;19933;-83
2023/08/15 08:08:01;;;;;;;;;;;23.30;99.90;;;;;;5046219;28;19929;-83
2023/08/15 08:10:28;;;;;;;;;;;23.30;99.90;;;;;;5040421;28;20271;-83
2023/08/15 08:12:54;;;;;;;;;;;23.30;99.90;;;;;;5050088;28;19929;-84
2023/08/15 08:15:23;;;;;;;;;;;23.30;99.90;;;;;;5057388;28;19943;-82
2023/08/15 08:17:51;;;;;;;;;;;23.40;99.90;;;;;;5024131;28;19925;-83
2023/08/15 08:20:18;;;;;;;;;;;23.60;99.90;;;;;;5055650;28;19925;-82
2023/08/15 08:22:43;;;;;;;;;;;24.00;99.90;;;;;;5024824;28;19925;-80
2023/08/15 08:25:16;;;;;;;;;;;24.50;99.90;;;;;;5055682;28;19940;-83
2023/08/15 08:27:43;;;;;;;;;;;24.90;99.90;;;;;;5041984;28;19929;-84
2023/08/15 08:30:09;;;;;;;;;;;25.40;99.90;;;;;;5018578;28;19931;-85
2023/08/15 08:32:35;;;;;;;;;;;25.70;99.90;;;;;;5038780;28;20138;-86
2023/08/15 08:35:00;;;;;;;;;;;25.90;99.90;;;;;;5068546;28;20384;-84
2023/08/15 08:37:26;;;;;;;;;;;25.80;99.90;;;;;;5003136;28;19992;-83
2023/08/15 08:39:52;;;;;;;;;;;25.50;99.90;;;;;;5039123;28;19929;-84
2023/08/15 08:42:17;;;;;;;;;;;25.20;99.90;;;;;;5039113;28;19932;-83
2023/08/15 08:44:46;;;;;;;;;;;25.00;99.90;;;;;;5039579;28;20447;-84
2023/08/15 08:47:12;;;;;;;;;;;25.00;99.90;;;;;;5039253;28;19925;-83
2023/08/15 08:49:38;;;;;;;;;;;25.10;99.90;;;;;;5040848;28;20395;-83
2023/08/15 08:52:04;;;;;;;;;;;25.30;99.90;;;;;;5032134;28;19925;-83
2023/08/15 08:54:30;;;;;;;;;;;25.40;99.90;;;;;;5041015;28;19960;-83
2023/08/15 08:56:58;;;;;;;;;;;25.40;99.90;;;;;;5053153;28;19929;-83
2023/08/15 08:59:25;;;;;;;;;;;25.40;99.90;;;;;;5046024;28;19929;-83
2023/08/15 09:01:51;;;;;;;;;;;25.60;99.90;;;;;;5037091;28;19932;-83
2023/08/15 09:04:17;;;;;;;;;;;25.90;99.90;;;;;;5018593;28;19925;-84
2023/08/15 09:06:43;;;;;;;;;;;26.10;99.90;;;;;;5038340;28;19955;-83
2023/08/15 09:09:09;;;;;;;;;;;26.40;99.90;;;;;;5050610;28;20008;-83
2023/08/15 09:11:35;;;;;;;;;;;26.60;99.90;;;;;;5037985;28;19936;-84
2023/08/15 09:14:05;;;;;;;;;;;26.80;99.90;;;;;;5036776;28;20760;-84
2023/08/15 09:16:31;;;;;;;;;;;26.90;99.90;;;;;;5019113;28;20347;-83
2023/08/15 09:18:59;;;;;;;;;;;27.10;99.90;;;;;;5052498;28;19984;-86
2023/08/15 09:21:26;;;;;;;;;;;27.30;99.90;;;;;;5022168;28;19951;-84
2023/08/15 09:23:52;;;;;;;;;;;27.40;99.90;;;;;;5072093;28;19986;-85
2023/08/15 09:26:18;;;;;;;;;;;27.30;99.90;;;;;;5037987;28;19933;-85
2023/08/15 09:28:45;;;;;;;;;;;27.20;99.90;;;;;;5020496;28;19956;-85
2023/08/15 09:31:11;;;;;;;;;;;27.00;99.90;;;;;;5020955;28;19956;-87
2023/08/15 09:33:40;;;;;;;;;;;26.70;99.90;;;;;;5064997;28;19925;-87
2023/08/15 09:36:06;;;;;;;;;;;26.20;99.90;;;;;;5023319;28;20714;-87
2023/08/15 09:38:32;;;;;;;;;;;25.90;99.90;;;;;;5006452;28;19925;-85
2023/08/15 09:40:59;;;;;;;;;;;25.70;99.90;;;;;;5021240;28;19931;-85
2023/08/15 09:43:25;;;;;;;;;;;25.40;99.90;;;;;;5021234;28;19976;-86
2023/08/15 09:45:51;;;;;;;;;;;25.30;99.90;;;;;;5019614;28;19924;-86
2023/08/15 09:48:17;;;;;;;;;;;25.10;99.90;;;;;;5020457;28;19954;-87
2023/08/15 09:50:43;;;;;;;;;;;25.30;99.90;;;;;;5037175;28;19978;-86
2023/08/15 09:53:09;;;;;;;;;;;25.40;99.90;;;;;;5022872;28;19988;-87
2023/08/15 09:55:35;;;;;;;;;;;25.50;99.90;;;;;;5035124;28;20047;-85
2023/08/15 09:58:00;;;;;;;;;;;25.40;99.90;;;;;;5019487;28;20011;-85
2023/08/15 10:00:26;;;;;;;;;;;25.20;99.90;;;;;;5063190;28;19980;-87
2023/08/15 10:02:55;;;;;;;;;;;25.10;99.90;;;;;;5021988;28;19932;-86
2023/08/15 10:05:21;;;;;;;;;;;25.00;99.90;;;;;;5017217;28;20308;-85
2023/08/15 10:07:48;;;;;;;;;;;24.80;99.90;;;;;;5026662;28;20300;-85
2023/08/15 10:10:15;;;;;;;;;;;24.70;99.90;;;;;;5054412;28;19932;-86
2023/08/15 10:12:41;;;;;;;;;;;24.60;99.90;;;;;;5034274;28;19925;-85
2023/08/15 10:15:07;;;;;;;;;;;24.50;99.90;;;;;;5011761;28;20862;-85
2023/08/15 10:17:33;;;;;;;;;;;24.40;99.90;;;;;;5021689;28;19925;-85
2023/08/15 10:20:05;;;;;;;;;;;24.70;99.90;;;;;;5034632;28;19948;-86
2023/08/15 10:22:32;;;;;;;;;;;24.80;99.90;;;;;;5053508;28;20368;-85
2023/08/15 10:25:17;;;;;;;;;;;24.60;99.90;;;;;;5053799;28;20389;-86
2023/08/15 10:27:47;;;;;;;;;;;24.60;99.90;;;;;;5037499;28;19974;-87
2023/08/15 10:30:26;;;;;;;;;;;24.50;99.90;;;;;;5019804;28;19929;-85
2023/08/15 10:32:52;;;;;;;;;;;24.30;99.90;;;;;;5017977;28;19948;-87
2023/08/15 10:35:23;;;;;;;;;;;24.10;99.90;;;;;;5020225;28;19925;-86
2023/08/15 10:37:49;;;;;;;;;;;24.00;99.90;;;;;;5021032;28;20236;-86
2023/08/15 10:40:15;;;;;;;;;;;24.20;99.90;;;;;;5036125;28;20285;-86
2023/08/15 10:43:02;;;;;;;;;;;24.20;99.90;;;;;;4997589;28;19932;-85
2023/08/15 10:45:39;;;;;;;;;;;24.30;99.90;;;;;;5050270;28;19955;-86
2023/08/15 10:48:04;;;;;;;;;;;24.50;99.90;;;;;;5024566;28;19925;-86
2023/08/15 10:50:30;;;;;;;;;;;24.70;99.90;;;;;;4997895;28;19959;-85
2023/08/15 10:53:00;;;;;;;;;;;24.70;99.90;;;;;;5003292;28;19975;-86
2023/08/15 10:55:27;;;;;;;;;;;24.60;99.90;;;;;;5020062;28;19929;-87
2023/08/15 10:57:54;;;;;;;;;;;24.60;99.90;;;;;;5019537;28;19926;-86
2023/08/15 11:00:21;;;;;;;;;;;24.50;99.90;;;;;;5019316;28;19926;-86
2023/08/15 11:02:47;;;;;;;;;;;24.30;99.90;;;;;;5003895;28;19929;-86
2023/08/15 11:05:13;;;;;;;;;;;24.40;99.90;;;;;;5038027;28;19925;-86
2023/08/15 11:07:41;;;;;;;;;;;24.60;99.90;;;;;;5033800;28;19933;-85
2023/08/15 11:10:13;;;;;;;;;;;24.80;99.90;;;;;;5010365;28;19939;-84
2023/08/15 11:12:45;;;;;;;;;;;25.20;99.90;;;;;;5055402;28;20446;-85
2023/08/15 11:15:11;;;;;;;;;;;25.40;99.90;;;;;;5019774;28;20029;-86
2023/08/15 11:17:37;;;;;;;;;;;25.60;99.90;;;;;;5035884;28;19925;-85
2023/08/15 11:20:04;;;;;;;;;;;25.60;99.90;;;;;;5053996;28;20004;-85
2023/08/15 11:22:29;;;;;;;;;;;25.60;99.90;;;;;;5033079;28;19933;-85
2023/08/15 11:25:01;;;;;;;;;;;25.50;99.90;;;;;;5032937;28;19977;-86
2023/08/15 11:27:26;;;;;;;;;;;25.40;99.90;;;;;;5051046;28;20408;-86
2023/08/15 11:29:56;;;;;;;;;;;25.40;99.90;;;;;;5002993;28;19935;-84
2023/08/15 11:32:23;;;;;;;;;;;25.40;99.90;;;;;;5003035;28;19929;-84
2023/08/15 11:34:48;;;;;;;;;;;25.30;99.90;;;;;;5034656;28;20019;-85
2023/08/15 11:37:14;;;;;;;;;;;25.20;99.90;;;;;;5035107;28;19933;-85
2023/08/15 11:39:39;;;;;;;;;;;25.30;99.90;;;;;;5027278;28;20386;-84
2023/08/15 11:42:05;;;;;;;;;;;25.40;99.90;;;;;;5034171;28;19929;-85
2023/08/15 11:44:31;;;;;;;;;;;25.60;99.90;;;;;;5029612;28;19929;-85
2023/08/15 11:46:56;;;;;;;;;;;25.80;99.90;;;;;;5042189;28;19989;-85
2023/08/15 11:49:23;;;;;;;;;;;26.10;99.90;;;;;;5034958;28;19930;-85
2023/08/15 11:51:48;;;;;;;;;;;26.30;99.90;;;;;;5033672;28;19932;-85
2023/08/15 11:54:14;;;;;;;;;;;26.50;99.90;;;;;;5036309;28;19929;-85
2023/08/15 11:56:47;;;;;;;;;;;26.50;99.90;;;;;;5024962;28;19951;-82
2023/08/15 11:59:15;;;;;;;;;;;26.60;99.90;;;;;;5036639;28;19925;-86
2023/08/15 12:01:44;;;;;;;;;;;26.90;99.90;;;;;;5066456;28;19925;-85
2023/08/15 12:04:13;;;;;;;;;;;27.20;99.90;;;;;;5033611;28;19925;-85
2023/08/15 12:06:39;;;;;;;;;;;27.40;99.90;;;;;;5047021;28;19925;-79
2023/08/15 12:09:08;;;;;;;;;;;27.50;99.90;;;;;;5067471;28;19929;-78
2023/08/15 12:11:34;;;;;;;;;;;27.40;99.90;;;;;;5052224;28;19979;-78
2023/08/15 12:14:00;;;;;;;;;;;27.20;99.90;;;;;;5037326;28;19940;-77
2023/08/15 12:16:25;;;;;;;;;;;26.80;99.90;;;;;;5032780;28;19955;-77
2023/08/15 12:18:51;;;;;;;;;;;26.40;99.90;;;;;;5036630;28;19925;-78
2023/08/15 12:21:17;;;;;;;;;;;26.00;99.90;;;;;;5033852;28;19925;-77
2023/08/15 12:23:42;;;;;;;;;;;25.60;99.90;;;;;;5040466;28;19971;-78
2023/08/15 12:26:08;;;;;;;;;;;25.30;99.90;;;;;;5039525;28;19932;-77
2023/08/15 12:28:33;;;;;;;;;;;25.10;99.90;;;;;;5039963;28;20404;-77
2023/08/15 12:30:59;;;;;;;;;;;25.10;99.90;;;;;;5071086;28;19925;-77
2023/08/15 12:33:25;;;;;;;;;;;25.20;99.90;;;;;;5023136;28;19969;-77
2023/08/15 12:35:51;;;;;;;;;;;25.30;99.90;;;;;;5039934;28;20000;-78
2023/08/15 12:38:17;;;;;;;;;;;25.30;99.90;;;;;;5038928;28;19971;-78
2023/08/15 12:40:43;;;;;;;;;;;25.20;99.90;;;;;;5039269;28;20391;-77
2023/08/15 12:43:09;;;;;;;;;;;25.10;99.90;;;;;;5039875;28;19936;-78
2023/08/15 12:45:35;;;;;;;;;;;25.20;99.90;;;;;;5072690;28;19933;-78
2023/08/15 12:48:01;;;;;;;;;;;25.20;99.90;;;;;;5057157;28;19936;-78
2023/08/15 12:50:26;;;;;;;;;;;25.30;99.90;;;;;;5056345;28;19925;-79
2023/08/15 12:52:52;;;;;;;;;;;25.50;99.90;;;;;;5055763;28;19925;-77
2023/08/15 12:55:17;;;;;;;;;;;25.70;99.90;;;;;;5038919;28;19925;-78
2023/08/15 12:57:43;;;;;;;;;;;25.70;99.90;;;;;;5039635;28;19925;-77
2023/08/15 13:00:09;;;;;;;;;;;25.80;99.90;;;;;;5022715;28;19987;-80
2023/08/15 13:02:35;;;;;;;;;;;26.10;99.90;;;;;;5054486;28;20392;-78
2023/08/15 13:05:00;;;;;;;;;;;26.10;99.90;;;;;;5050966;28;20050;-78
2023/08/15 13:07:26;;;;;;;;;;;26.00;99.90;;;;;;5071389;28;20384;-78
2023/08/15 13:09:52;;;;;;;;;;;26.00;99.90;;;;;;5038619;28;20275;-79
2023/08/15 13:12:18;;;;;;;;;;;25.90;99.90;;;;;;5071550;28;20004;-79
2023/08/15 13:14:44;;;;;;;;;;;25.90;99.90;;;;;;5074096;28;19925;-78
2023/08/15 13:17:10;;;;;;;;;;;25.70;99.90;;;;;;5036983;28;19936;-79
2023/08/15 13:19:36;;;;;;;;;;;25.50;99.90;;;;;;5039560;28;19925;-78
2023/08/15 13:22:02;;;;;;;;;;;25.40;99.90;;;;;;5038870;28;19933;-79
2023/08/15 13:24:27;;;;;;;;;;;25.40;99.90;;;;;;5040167;28;19980;-79
2023/08/15 13:26:53;;;;;;;;;;;25.40;99.90;;;;;;5038889;28;19925;-77
2023/08/15 13:29:19;;;;;;;;;;;25.50;99.90;;;;;;5054357;28;19955;-78
2023/08/15 13:31:44;;;;;;;;;;;25.40;99.90;;;;;;5071235;28;19932;-79
2023/08/15 13:34:10;;;;;;;;;;;25.30;99.90;;;;;;5019944;28;19925;-79
2023/08/15 13:36:35;;;;;;;;;;;25.20;99.90;;;;;;5032865;28;19929;-78
2023/08/15 13:39:01;;;;;;;;;;;25.00;99.90;;;;;;5053694;28;19933;-78
2023/08/15 13:41:27;;;;;;;;;;;25.00;99.90;;;;;;5038632;28;19948;-78
2023/08/15 13:43:52;;;;;;;;;;;25.00;99.90;;;;;;5037235;28;19933;-79
2023/08/15 13:46:18;;;;;;;;;;;25.10;99.90;;;;;;5062941;28;19925;-78
2023/08/15 13:48:44;;;;;;;;;;;25.30;99.90;;;;;;5036654;28;20008;-80
2023/08/15 13:51:19;;;;;;;;;;;25.40;99.90;;;;;;5041110;28;19969;-80
2023/08/15 13:53:45;;;;;;;;;;;25.40;99.90;;;;;;5070664;28;19929;-78
2023/08/15 13:56:11;;;;;;;;;;;25.20;99.90;;;;;;5046164;28;19925;-77
2023/08/15 13:58:37;;;;;;;;;;;25.00;99.90;;;;;;5025503;28;19975;-78
2023/08/15 14:01:02;;;;;;;;;;;25.00;99.90;;;;;;5055261;28;19925;-78
2023/08/15 14:03:29;;;;;;;;;;;24.90;99.90;;;;;;5036893;28;19925;-77
2023/08/15 14:05:58;;;;;;;;;;;24.90;99.90;;;;;;5037931;28;19953;-79
2023/08/15 14:08:24;;;;;;;;;;;24.80;99.90;;;;;;5036636;28;19947;-79
2023/08/15 14:10:50;;;;;;;;;;;24.70;99.90;;;;;;5020412;28;19968;-79